Airfield :
LOGIN :

Register | Disclaimer

   EN    FR    IT 

 










Legend :    VFR   Marginal VFR   IFR   Intensive IFR   Very Intensive IFR
Visi :
Ceiling :
>= 8 km
>= 3000ft
5 to 8 km
1000 to 3000 ft
1500m to 5 km
500 to 1000 ft
800 to 1500m
200 to 500 ft
< 800m
< 200 ft
Symbols :   Thunderstorms  Fog  Heavy snow  Heavy precipitations  Wind > 20 kt
SIGMETs :     Misc.  Thunderstorms  Icing  Turbulence  Mountain Waves  Volcanic Ashes






- Airport Elevation : 87 ft
- IATA code : FSC


LFKF - Figari

CURRENT METAR :
  • 161200Z AUTO 24018KT CAVOK 33/19 Q1013 TEMPO 25015G25KT

EXPIRED METARs :
  • 161130Z AUTO 23016KT CAVOK 34/19 Q1014 TEMPO 25015G25KT
  • 161100Z AUTO 23017KT CAVOK 32/18 Q1014 TEMPO 25015G25KT
  • 161030Z AUTO 21013KT 190V250 CAVOK 32/20 Q1014 TEMPO 25015G25KT
  • 161000Z AUTO 22010KT 180V260 CAVOK 32/20 Q1014 TEMPO 25015G25KT
  • 160930Z AUTO 18007KT 100V240 CAVOK 31/21 Q1014 TEMPO 25015G25KT
  • 160900Z AUTO 20007KT 160V240 CAVOK 30/20 Q1014 NOSIG
  • 160830Z AUTO 22008KT 180V250 CAVOK 30/21 Q1014 NOSIG
  • 160800Z AUTO 23006KT 180V280 CAVOK 30/21 Q1014 NOSIG
  • 160730Z AUTO 22004KT 180V280 CAVOK 29/22 Q1014 NOSIG

TAF TAF LFKF
Valid from the 16 at 09:00 until the 17 at 09:00 UTC


160800Z 1609/1709 24006KT CAVOK
BECMG 1609/1610 25012KT
PROB40
TEMPO 1611/1621 25015G25KT
BECMG 1622/1624 VRB03KT
BECMG 1707/1709 25015G25KT



MET'MAP, your aeronautical weather chart ! - Copyright ORBIFLY December 2007 - Disclaimer

ORBIFLY MET'MAP TEAM :

Programming & Development : Alexandra Zaïnal
Original concept : Baudouin d'Aumeries
Technical & hardware support : Manuel Goepfert
Assistance : Marc-Olivier Méhu




SOURCES & CREDITS :

   NOAA